Time;durP1;ratioP1;P1;durP2;ratioP2;P2;SDS_P1;SDS_P2;PMS_P1;PMS_P2;Temp;Humidity;BMP_temperature;BMP_pressure;BME280_temperature;BME280_humidity;BME280_pressure;Samples;Min_cycle;Max_cycle;Signal;HPM_P1;HPM_P2
2023/12/30 00:00:28;;;;;;;0.20;0.15;;;;;;;10.38;66.81;151283.81;13039015;22;20336;-82
2023/12/30 00:05:30;;;;;;;0.38;0.20;;;;;;;10.21;67.28;151242.44;13066176;22;20041;-83
2023/12/30 00:10:32;;;;;;;0.35;0.20;;;;;;;10.19;67.05;151237.28;13069814;22;20027;-82
2023/12/30 00:15:34;;;;;;;1.10;0.40;;;;;;;10.25;66.44;151251.53;13053299;22;20322;-81
2023/12/30 00:20:36;;;;;;;0.50;0.20;;;;;;;10.28;66.32;151260.56;13075360;22;20029;-82
2023/12/30 00:25:37;;;;;;;0.38;0.20;;;;;;;10.28;66.44;151259.28;13038480;22;20487;-81
2023/12/30 00:30:39;;;;;;;0.20;0.20;;;;;;;10.21;66.59;151242.44;13067282;22;20015;-82
2023/12/30 00:35:41;;;;;;;0.35;0.30;;;;;;;10.09;66.84;151211.44;13066712;22;20042;-83
2023/12/30 00:40:42;;;;;;;0.45;0.20;;;;;;;10.14;66.78;151223.06;13038885;22;20027;-82
2023/12/30 00:45:44;;;;;;;0.22;0.20;;;;;;;10.21;66.33;151242.44;13067701;22;20499;-81
2023/12/30 00:50:48;;;;;;;0.30;0.30;;;;;;;10.08;66.99;151210.16;13025282;22;20026;-80
2023/12/30 00:55:50;;;;;;;0.43;0.30;;;;;;;10.05;66.91;151202.44;13090649;22;20058;-80
2023/12/30 01:00:52;;;;;;;0.90;0.20;;;;;;;10.03;67.13;151197.25;13091848;22;20022;-81
2023/12/30 01:05:54;;;;;;;0.30;0.25;;;;;;;10.04;67.19;151199.84;13063277;22;20145;-81
2023/12/30 01:10:55;;;;;;;0.93;0.28;;;;;;;9.88;68.43;151158.56;13071106;22;20483;-80
2023/12/30 01:15:57;;;;;;;0.30;0.30;;;;;;;9.94;68.32;151174.03;13047159;22;20022;-80
2023/12/30 01:20:59;;;;;;;0.22;0.20;;;;;;;9.94;67.89;151172.75;13044355;22;20030;-80
2023/12/30 01:26:01;;;;;;;0.20;0.20;;;;;;;9.95;68.03;151176.59;13073692;22;20026;-79
2023/12/30 01:31:03;;;;;;;0.40;0.10;;;;;;;9.94;68.19;151174.03;13039139;22;20455;-78
2023/12/30 01:36:05;;;;;;;0.22;0.20;;;;;;;10.03;67.43;151197.25;13106857;22;20057;-78
2023/12/30 01:41:08;;;;;;;0.40;0.10;;;;;;;10.18;67.36;151233.41;13085814;22;20003;-80
2023/12/30 01:46:10;;;;;;;0.30;0.20;;;;;;;10.04;67.97;151199.84;13112906;22;20050;-79
2023/12/30 01:51:12;;;;;;;0.13;0.13;;;;;;;9.97;68.79;151180.50;13112838;22;20006;-79
2023/12/30 01:56:27;;;;;;;0.25;0.17;;;;;;;9.85;69.89;151150.81;13085858;22;20030;-81
2023/12/30 02:01:29;;;;;;;0.40;0.20;;;;;;;9.69;70.75;151110.78;13098918;22;20011;-79
2023/12/30 02:06:31;;;;;;;0.30;0.10;;;;;;;9.77;70.76;151130.16;13091430;22;20015;-78
2023/12/30 02:11:33;;;;;;;0.85;0.10;;;;;;;9.89;70.87;151159.84;13089889;22;20067;-78
2023/12/30 02:16:35;;;;;;;0.10;0.10;;;;;;;9.70;73.31;151113.41;13103331;22;19999;-82
2023/12/30 02:21:37;;;;;;;0.20;0.10;;;;;;;9.58;75.02;151082.44;13112145;22;19999;-80
2023/12/30 02:26:40;;;;;;;0.10;0.10;;;;;;;9.53;76.24;151070.81;13085726;22;20015;-79
2023/12/30 02:31:46;;;;;;;0.20;0.10;;;;;;;9.45;77.38;151050.16;13112190;22;19995;-78
2023/12/30 02:36:48;;;;;;;0.20;0.10;;;;;;;9.35;78.36;151024.38;13111095;22;20031;-77
2023/12/30 02:41:50;;;;;;;0.28;0.20;;;;;;;9.09;80.08;150959.88;13111708;22;20015;-79
2023/12/30 02:46:52;;;;;;;0.20;0.10;;;;;;;9.03;80.87;150943.09;13111408;22;20010;-80
2023/12/30 02:51:54;;;;;;;0.20;0.20;;;;;;;8.92;82.45;150916.03;13107881;22;20014;-81
2023/12/30 02:56:56;;;;;;;0.40;0.20;;;;;;;8.70;84.76;150859.28;13101876;22;20011;-81
2023/12/30 03:01:58;;;;;;;0.55;0.15;;;;;;;8.69;84.48;150858.00;13076375;22;20022;-79
2023/12/30 03:07:00;;;;;;;1.00;0.40;;;;;;;8.60;84.93;150834.81;13082646;22;20019;-79
2023/12/30 03:12:03;;;;;;;0.25;0.20;;;;;;;8.61;83.90;150836.09;13083023;22;20039;-77
2023/12/30 03:17:04;;;;;;;0.10;0.10;;;;;;;8.54;84.51;150820.66;13084856;22;20003;-80
2023/12/30 03:22:06;;;;;;;0.70;0.30;;;;;;;8.59;84.65;150833.53;13084520;22;20059;-79
2023/12/30 03:27:08;;;;;;;0.10;0.10;;;;;;;8.64;84.15;150845.13;13084653;22;20007;-81
2023/12/30 03:32:10;;;;;;;0.45;0.20;;;;;;;8.61;84.34;150836.09;13110306;22;20010;-79
2023/12/30 03:37:12;;;;;;;0.17;0.17;;;;;;;8.75;83.05;150872.19;13083741;22;20015;-81
2023/12/30 03:42:14;;;;;;;0.40;0.20;;;;;;;8.71;82.50;150863.16;13104733;22;20015;-83
2023/12/30 03:47:16;;;;;;;0.60;0.32;;;;;;;8.79;81.73;150883.78;13075835;22;20027;-83
2023/12/30 03:52:17;;;;;;;0.77;0.20;;;;;;;8.75;81.22;150872.19;13109294;22;20015;-80
2023/12/30 03:57:19;;;;;;;0.57;0.20;;;;;;;8.79;80.82;150882.50;13110944;22;20011;-81
2023/12/30 04:02:21;;;;;;;0.30;0.30;;;;;;;8.99;79.56;150934.09;13058821;22;20068;-80
2023/12/30 04:07:23;;;;;;;0.40;0.20;;;;;;;8.97;80.09;150928.91;13107928;22;20006;-81
2023/12/30 04:12:25;;;;;;;0.40;0.30;;;;;;;8.88;85.37;150905.72;13110629;22;20083;-81
2023/12/30 04:17:26;;;;;;;0.40;0.25;;;;;;;8.60;88.04;150834.81;13084032;22;20026;-79
2023/12/30 04:22:28;;;;;;;0.98;0.30;;;;;;;8.53;86.70;150818.03;13058648;22;20006;-81
2023/12/30 04:27:30;;;;;;;0.20;0.20;;;;;;;8.58;84.22;150830.91;13107167;22;20023;-83
2023/12/30 04:32:32;;;;;;;0.52;0.17;;;;;;;8.36;85.45;150774.16;13077943;22;20063;-82
2023/12/30 04:37:34;;;;;;;0.20;0.10;;;;;;;8.42;87.66;150789.69;13107802;22;20015;-82
2023/12/30 04:42:36;;;;;;;0.65;0.20;;;;;;;8.40;91.44;150783.22;13109664;22;20003;-82
2023/12/30 04:47:39;;;;;;;0.22;0.22;;;;;;;8.22;92.82;150739.34;13064197;22;20085;-81
2023/12/30 04:52:42;;;;;;;0.30;0.30;;;;;;;8.09;93.49;150707.13;13055868;22;20034;-81
2023/12/30 04:57:47;;;;;;;0.52;0.30;;;;;;;7.98;94.16;150678.81;13050471;22;20056;-83
2023/12/30 05:02:49;;;;;;;0.10;0.10;;;;;;;7.79;94.50;150631.13;13046831;22;20022;-83
2023/12/30 05:07:51;;;;;;;0.20;0.20;;;;;;;7.67;93.55;150600.22;13070851;22;20081;-82
2023/12/30 05:12:52;;;;;;;0.25;0.10;;;;;;;7.66;92.80;150597.66;13086693;22;20019;-83
2023/12/30 05:17:54;;;;;;;0.40;0.10;;;;;;;7.63;93.26;150589.91;13101946;22;20022;-79
2023/12/30 05:23:00;;;;;;;0.30;0.13;;;;;;;7.42;95.64;150537.06;13055858;22;20030;-81
2023/12/30 05:28:02;;;;;;;0.17;0.10;;;;;;;7.62;93.94;150587.34;13044189;22;20019;-81
2023/12/30 05:33:04;;;;;;;0.28;0.20;;;;;;;7.64;91.65;150592.47;13016228;22;20070;-82
2023/12/30 05:38:06;;;;;;;0.20;0.20;;;;;;;7.74;85.48;150618.22;13041968;22;20011;-81
2023/12/30 05:43:08;;;;;;;0.75;0.10;;;;;;;7.79;82.23;150629.81;13066562;22;20015;-83
2023/12/30 05:48:10;;;;;;;0.17;0.10;;;;;;;7.80;81.79;150632.44;13038337;22;20073;-81
2023/12/30 05:53:12;;;;;;;0.47;0.10;;;;;;;7.81;81.31;150635.00;13065550;22;20015;-81
2023/12/30 05:58:14;;;;;;;1.10;0.15;;;;;;;7.79;82.34;150631.13;13036813;22;20016;-81
2023/12/30 06:03:15;;;;;;;0.00;0.00;;;;;;;7.78;82.12;150627.25;13063333;22;20026;-82
2023/12/30 06:08:17;;;;;;;0.75;0.10;;;;;;;7.80;82.53;150632.44;13069353;22;20022;-81
2023/12/30 06:13:19;;;;;;;0.45;0.17;;;;;;;7.70;83.88;150607.97;13036427;22;20026;-80
2023/12/30 06:18:21;;;;;;;1.25;0.10;;;;;;;7.82;83.13;150638.84;13064375;22;20015;-81
2023/12/30 06:23:23;;;;;;;0.40;0.10;;;;;;;7.89;82.62;150655.59;13042024;22;20030;-81
2023/12/30 06:28:25;;;;;;;0.20;0.10;;;;;;;7.78;84.29;150628.53;13077599;22;20027;-81
2023/12/30 06:33:26;;;;;;;0.20;0.20;;;;;;;7.81;84.53;150635.00;13073728;22;20334;-82
2023/12/30 06:38:28;;;;;;;0.65;0.10;;;;;;;7.55;87.59;150569.28;13071612;22;20098;-80
2023/12/30 06:43:30;;;;;;;0.10;0.10;;;;;;;7.73;87.59;150614.38;13068905;22;20019;-81
2023/12/30 06:48:32;;;;;;;0.13;0.13;;;;;;;7.58;89.94;150578.31;13076252;22;20054;-80
2023/12/30 06:53:33;;;;;;;0.50;0.10;;;;;;;7.58;91.02;150578.31;13048968;22;20083;-81
2023/12/30 06:58:36;;;;;;;5.13;0.45;;;;;;;7.58;89.56;150578.31;13074061;22;20015;-81
2023/12/30 07:03:38;;;;;;;0.38;0.22;;;;;;;7.43;90.33;150539.63;13085233;22;20011;-81
2023/12/30 07:08:40;;;;;;;0.10;0.10;;;;;;;7.57;89.62;150574.47;13079754;22;20026;-81
2023/12/30 07:13:41;;;;;;;0.43;0.20;;;;;;;7.59;90.11;150580.88;13065930;22;20019;-81
2023/12/30 07:18:43;;;;;;;0.77;0.20;;;;;;;7.41;93.91;150533.22;13070103;22;20011;-80
2023/12/30 07:23:45;;;;;;;0.10;0.10;;;;;;;7.23;91.32;150489.44;13080812;22;20019;-81
2023/12/30 07:28:47;;;;;;;0.47;0.17;;;;;;;7.10;90.21;150454.66;13073709;22;20026;-83
2023/12/30 07:33:49;;;;;;;0.17;0.13;;;;;;;7.01;90.55;150434.06;13074521;22;20015;-81
2023/12/30 07:38:52;;;;;;;0.10;0.10;;;;;;;7.07;89.63;150448.22;13070979;22;20022;-82
2023/12/30 07:43:54;;;;;;;0.50;0.10;;;;;;;7.06;90.36;150445.66;13073062;22;20015;-83
2023/12/30 07:48:55;;;;;;;0.73;0.10;;;;;;;7.01;91.34;150434.06;13076120;22;20040;-81
2023/12/30 07:53:57;;;;;;;1.73;0.20;;;;;;;6.96;92.52;150421.19;13042160;22;20072;-83
2023/12/30 07:58:59;;;;;;;0.10;0.10;;;;;;;6.88;92.91;150399.31;13070987;22;20045;-82
2023/12/30 08:04:01;;;;;;;0.32;0.20;;;;;;;6.86;92.21;150395.41;13075715;22;20023;-82
2023/12/30 08:09:04;;;;;;;0.20;0.20;;;;;;;7.15;90.21;150468.81;13048850;22;20011;-82
2023/12/30 08:14:05;;;;;;;0.10;0.00;;;;;;;7.34;88.62;150516.44;13076623;22;20026;-82
2023/12/30 08:19:09;;;;;;;1.13;0.32;;;;;;;7.46;87.19;150546.09;13075644;22;20008;-82
2023/12/30 08:24:14;;;;;;;0.30;0.20;;;;;;;7.61;87.30;150583.44;13076156;22;20020;-84
2023/12/30 08:29:16;;;;;;;0.32;0.10;;;;;;;7.62;87.44;150586.06;13075428;22;20015;-82
2023/12/30 08:34:17;;;;;;;0.47;0.20;;;;;;;7.62;85.80;150587.34;13072267;22;20037;-81
2023/12/30 08:39:19;;;;;;;0.52;0.30;;;;;;;7.59;87.88;150579.59;13071974;22;20037;-80
2023/12/30 08:44:21;;;;;;;1.13;0.40;;;;;;;7.55;89.16;150569.28;13071756;22;20015;-85
2023/12/30 08:49:23;;;;;;;1.70;0.35;;;;;;;7.59;90.58;150580.88;13073328;22;20038;-84
2023/12/30 08:54:24;;;;;;;2.63;0.35;;;;;;;7.67;90.56;150600.22;13024837;22;20135;-85
2023/12/30 08:59:26;;;;;;;0.25;0.15;;;;;;;7.55;91.47;150570.56;13048136;22;20449;-84
2023/12/30 09:04:28;;;;;;;0.95;0.20;;;;;;;7.55;91.39;150569.28;13050414;22;20019;-84
2023/12/30 09:09:30;;;;;;;0.30;0.15;;;;;;;7.52;92.53;150561.53;13075478;22;20012;-83
2023/12/30 09:14:32;;;;;;;1.23;0.32;;;;;;;7.64;90.48;150591.19;13075171;22;20023;-84
2023/12/30 09:19:34;;;;;;;0.20;0.13;;;;;;;7.67;89.82;150598.94;13075112;22;20018;-82
2023/12/30 09:24:37;;;;;;;1.15;0.28;;;;;;;7.55;88.68;150569.28;13022525;22;20035;-82
2023/12/30 09:29:38;;;;;;;2.55;2.35;;;;;;;7.68;86.41;150601.50;13040393;22;20030;-80
2023/12/30 09:34:40;;;;;;;2.28;0.45;;;;;;;7.66;84.35;150597.66;13067407;22;20026;-80
2023/12/30 09:39:45;;;;;;;0.20;0.20;;;;;;;7.55;84.97;150569.28;13068499;22;20015;-80
2023/12/30 09:44:48;;;;;;;0.70;0.70;;;;;;;7.78;83.40;150628.53;13041090;22;20046;-82
2023/12/30 09:49:50;;;;;;;1.40;0.30;;;;;;;7.75;85.03;150619.53;13066497;22;20069;-82
2023/12/30 09:54:52;;;;;;;0.52;0.30;;;;;;;7.72;85.94;150613.09;13070529;22;20043;-82
2023/12/30 09:59:55;;;;;;;0.68;0.30;;;;;;;7.69;87.83;150605.34;13041808;22;20098;-81
2023/12/30 10:04:59;;;;;;;1.02;0.20;;;;;;;7.74;88.49;150618.22;13070771;22;20398;-82
2023/12/30 10:10:01;;;;;;;0.40;0.20;;;;;;;8.04;86.13;150694.25;13076217;22;20453;-82
2023/12/30 10:15:03;;;;;;;0.85;0.25;;;;;;;7.99;85.80;150681.38;13071278;22;20526;-82
2023/12/30 10:20:06;;;;;;;1.23;0.93;;;;;;;8.27;84.12;150752.22;13066888;22;20019;-80
2023/12/30 10:25:09;;;;;;;5.28;0.35;;;;;;;8.42;82.84;150788.41;13069447;22;20038;-81
2023/12/30 10:30:15;;;;;;;1.95;0.60;;;;;;;8.38;84.47;150779.38;13069941;22;20015;-81
2023/12/30 10:35:17;;;;;;;1.45;0.77;;;;;;;8.29;86.37;150756.13;13071338;22;20457;-81
2023/12/30 10:40:22;;;;;;;1.20;0.20;;;;;;;8.47;84.62;150801.28;13071635;22;20019;-81
2023/12/30 10:45:24;;;;;;;1.20;0.20;;;;;;;8.57;80.38;150828.34;13046079;22;20298;-81
2023/12/30 10:50:27;;;;;;;0.90;0.30;;;;;;;8.63;78.83;150842.50;13074985;22;20015;-83
2023/12/30 10:55:32;;;;;;;1.38;0.20;;;;;;;8.55;78.54;150823.22;13043655;22;20068;-82
2023/12/30 11:00:35;;;;;;;1.05;0.20;;;;;;;8.70;73.76;150859.28;13072364;22;20094;-82
2023/12/30 11:05:47;;;;;;;0.70;0.20;;;;;;;8.62;73.66;150838.66;13071945;22;20015;-85
2023/12/30 11:10:52;;;;;;;0.68;0.20;;;;;;;8.51;73.64;150812.88;13051762;22;20019;-83
2023/12/30 11:15:54;;;;;;;0.77;0.13;;;;;;;8.27;76.30;150750.94;13079706;22;20333;-82
2023/12/30 11:20:56;;;;;;;0.25;0.10;;;;;;;8.31;72.53;150762.56;13071300;22;20454;-83
2023/12/30 11:25:58;;;;;;;0.30;0.20;;;;;;;8.26;68.69;150748.38;13045228;22;20011;-81
2023/12/30 11:31:01;;;;;;;1.35;0.30;;;;;;;8.28;68.33;150754.84;13071174;22;20015;-82
2023/12/30 11:36:04;;;;;;;0.10;0.08;;;;;;;8.19;70.26;150730.31;13075888;22;20026;-83
2023/12/30 11:41:06;;;;;;;0.45;0.17;;;;;;;8.09;73.12;150705.84;13076252;22;20019;-80
2023/12/30 11:46:08;;;;;;;1.55;0.50;;;;;;;8.02;75.05;150687.84;13075734;22;20015;-80
2023/12/30 11:51:18;;;;;;;1.38;0.15;;;;;;;8.04;75.76;150692.97;13077953;22;20044;-82
2023/12/30 11:56:21;;;;;;;1.67;0.20;;;;;;;7.94;76.68;150667.22;13078125;22;20012;-81
2023/12/30 12:01:23;;;;;;;0.20;0.20;;;;;;;7.80;76.26;150632.44;13078123;22;20019;-80
2023/12/30 12:06:25;;;;;;;0.75;0.13;;;;;;;7.84;75.81;150644.00;13078362;22;20016;-81
2023/12/30 12:11:27;;;;;;;0.65;0.22;;;;;;;7.81;75.82;150636.28;13077657;22;20019;-82
2023/12/30 12:16:31;;;;;;;2.80;1.25;;;;;;;7.74;77.35;150616.94;13078943;22;20461;-81
2023/12/30 12:21:35;;;;;;;1.70;0.77;;;;;;;7.55;81.44;150569.28;13079774;22;20023;-81
2023/12/30 12:26:37;;;;;;;0.88;0.45;;;;;;;7.45;87.83;150544.81;13078568;22;20026;-81
2023/12/30 12:31:44;;;;;;;1.08;0.20;;;;;;;7.32;89.10;150512.59;13077503;22;20340;-81
2023/12/30 12:36:46;;;;;;;0.50;0.30;;;;;;;7.44;88.88;150542.25;13076730;22;20015;-82
2023/12/30 12:41:48;;;;;;;2.58;0.20;;;;;;;7.54;89.20;150566.72;13083747;22;20034;-82
2023/12/30 12:46:50;;;;;;;0.40;0.40;;;;;;;7.76;84.98;150622.13;13075907;22;20042;-81
2023/12/30 12:51:51;;;;;;;0.47;0.22;;;;;;;7.75;84.43;150619.53;13076426;22;20019;-83
2023/12/30 12:56:53;;;;;;;1.65;0.32;;;;;;;7.93;80.91;150665.91;13075697;22;20020;-83
2023/12/30 13:01:55;;;;;;;0.90;0.22;;;;;;;8.00;79.64;150683.94;13049762;22;20395;-84
2023/12/30 13:06:57;;;;;;;0.82;0.30;;;;;;;8.10;78.54;150708.41;13051575;22;20039;-83
2023/12/30 13:11:59;;;;;;;1.17;0.28;;;;;;;8.04;79.54;150694.25;13075391;22;20015;-83
2023/12/30 13:17:11;;;;;;;1.92;0.32;;;;;;;8.09;79.42;150707.13;13049126;22;20023;-83
2023/12/30 13:22:13;;;;;;;1.02;0.30;;;;;;;8.15;79.72;150720.06;13075548;22;20102;-83
2023/12/30 13:27:15;;;;;;;0.30;0.30;;;;;;;8.26;78.46;150748.38;13075767;22;20022;-83
2023/12/30 13:32:17;;;;;;;1.30;0.47;;;;;;;8.33;78.39;150766.44;13063988;22;20074;-82
2023/12/30 13:37:19;;;;;;;0.50;0.30;;;;;;;8.26;79.61;150748.38;13063709;22;20016;-83
2023/12/30 13:42:21;;;;;;;2.10;0.40;;;;;;;8.32;79.02;150763.84;13046549;22;20076;-82
2023/12/30 13:48:21;;;;;;;0.82;0.52;;;;;;;8.30;79.85;150758.69;13042450;22;20365;-83
2023/12/30 13:53:01;;;;;;;3.97;0.47;;;;;;;8.26;80.08;150749.66;13068368;22;20026;-81
2023/12/30 13:58:05;;;;;;;2.65;0.60;;;;;;;8.36;79.80;150774.16;13070790;22;20022;-82
2023/12/30 14:03:07;;;;;;;1.33;0.50;;;;;;;8.45;78.88;150797.38;13068117;22;20015;-82
2023/12/30 14:08:36;;;;;;;0.95;0.60;;;;;;;8.43;79.50;150790.97;13067716;22;20015;-82
2023/12/30 14:13:38;;;;;;;0.63;0.20;;;;;;;8.40;79.02;150783.22;13069859;22;20069;-83
2023/12/30 14:18:40;;;;;;;1.13;0.40;;;;;;;8.44;78.68;150794.81;13049651;22;20022;-83
2023/12/30 14:23:41;;;;;;;2.03;0.40;;;;;;;8.63;77.50;150841.22;13073953;22;20015;-82
2023/12/30 14:28:43;;;;;;;2.17;0.60;;;;;;;8.52;78.17;150814.19;13045696;22;20015;-83
2023/12/30 14:33:47;;;;;;;0.95;0.40;;;;;;;8.52;78.39;150814.19;13069746;22;20023;-82
2023/12/30 14:38:50;;;;;;;1.23;0.60;;;;;;;8.41;79.40;150785.78;13070951;22;20037;-82
2023/12/30 14:43:51;;;;;;;0.85;0.50;;;;;;;8.39;79.34;150781.94;13042680;22;20333;-81
2023/12/30 14:48:53;;;;;;;1.75;0.70;;;;;;;8.34;80.37;150769.00;13073994;22;20019;-83
2023/12/30 14:53:55;;;;;;;0.60;0.28;;;;;;;8.20;81.12;150732.94;13048655;22;20079;-83
2023/12/30 14:58:57;;;;;;;1.02;0.43;;;;;;;8.06;82.37;150698.16;13074817;22;20023;-83
2023/12/30 15:04:01;;;;;;;2.03;0.63;;;;;;;8.05;82.84;150695.53;13070137;22;20015;-82
2023/12/30 15:09:06;;;;;;;1.73;0.68;;;;;;;7.93;84.27;150665.91;13067301;22;20023;-84
2023/12/30 15:14:08;;;;;;;1.83;0.60;;;;;;;7.90;85.25;150656.91;13075983;22;20472;-82
2023/12/30 15:19:10;;;;;;;0.75;0.40;;;;;;;7.93;84.90;150665.91;13068682;22;20011;-81
2023/12/30 15:24:12;;;;;;;2.67;0.77;;;;;;;7.99;84.98;150680.09;13066645;22;20015;-81
2023/12/30 15:29:14;;;;;;;0.95;0.60;;;;;;;7.92;85.53;150662.03;13067180;22;20018;-81
2023/12/30 15:34:16;;;;;;;1.58;0.70;;;;;;;7.80;86.92;150632.44;13037270;22;20026;-81
2023/12/30 15:39:18;;;;;;;3.58;0.93;;;;;;;7.57;88.89;150575.75;13036875;22;20007;-82
2023/12/30 15:44:19;;;;;;;1.27;0.70;;;;;;;7.81;87.10;150635.00;13067943;22;20043;-80
2023/12/30 15:49:21;;;;;;;1.52;1.00;;;;;;;7.53;89.99;150564.16;13069759;22;20012;-81
2023/12/30 15:54:23;;;;;;;1.73;0.80;;;;;;;7.53;90.75;150565.44;13088397;22;20023;-83
2023/12/30 15:59:26;;;;;;;2.03;0.90;;;;;;;7.72;89.26;150611.81;13094684;22;20033;-82
2023/12/30 16:04:28;;;;;;;3.30;0.70;;;;;;;7.79;88.68;150631.13;13063114;22;20020;-82
2023/12/30 16:09:30;;;;;;;1.88;0.93;;;;;;;7.58;90.10;150577.03;13090324;22;20011;-82
2023/12/30 16:14:33;;;;;;;1.80;0.63;;;;;;;7.63;88.94;150589.91;13073397;22;20016;-81
2023/12/30 16:19:35;;;;;;;9.68;3.33;;;;;;;7.34;90.13;150517.75;13055256;22;20018;-80
2023/12/30 16:24:36;;;;;;;6.43;3.22;;;;;;;7.31;90.41;150510.03;13088479;22;20042;-79
2023/12/30 16:29:42;;;;;;;5.15;1.20;;;;;;;7.41;90.13;150533.22;13086886;22;20011;-80
2023/12/30 16:34:44;;;;;;;3.70;1.25;;;;;;;7.31;90.48;150510.03;13081919;22;20030;-82
2023/12/30 16:39:46;;;;;;;3.00;0.85;;;;;;;7.40;89.99;150531.94;13076657;22;20015;-79
2023/12/30 16:44:53;;;;;;;1.70;0.82;;;;;;;7.29;91.15;150503.59;13050430;22;20019;-80
2023/12/30 16:49:55;;;;;;;2.67;1.25;;;;;;;7.26;91.07;150495.84;13048340;22;20049;-81
2023/12/30 16:54:56;;;;;;;2.78;1.45;;;;;;;6.90;92.74;150404.44;13075577;22;20153;-81
2023/12/30 16:59:58;;;;;;;5.68;1.02;;;;;;;6.72;94.31;150359.38;13051468;22;20016;-82
2023/12/30 17:05:00;;;;;;;2.40;1.25;;;;;;;6.64;94.96;150338.75;13049784;22;20388;-81
2023/12/30 17:10:04;;;;;;;2.10;1.50;;;;;;;6.54;94.95;150315.59;13075424;22;20035;-81
2023/12/30 17:15:06;;;;;;;4.53;2.53;;;;;;;6.67;94.52;150347.78;13077218;22;20353;-82
2023/12/30 17:20:08;;;;;;;6.03;3.47;;;;;;;6.58;94.46;150325.91;13073516;22;20480;-84
2023/12/30 17:25:10;;;;;;;3.78;2.78;;;;;;;6.58;94.61;150325.91;13074541;22;20026;-81
2023/12/30 17:30:12;;;;;;;2.08;1.67;;;;;;;6.63;94.22;150337.47;13051745;22;20019;-83
2023/12/30 17:35:14;;;;;;;2.70;1.92;;;;;;;6.80;93.73;150381.25;13054486;22;20019;-82
2023/12/30 17:40:17;;;;;;;6.28;2.47;;;;;;;6.78;93.18;150376.13;13054250;22;20097;-82
2023/12/30 17:45:20;;;;;;;1.90;1.50;;;;;;;6.86;92.66;150395.41;13085701;22;20015;-82
2023/12/30 17:50:21;;;;;;;3.63;1.85;;;;;;;6.71;93.50;150356.81;13074059;22;20441;-83
2023/12/30 17:55:23;;;;;;;3.28;1.77;;;;;;;6.58;94.65;150325.91;13046204;22;20019;-83
2023/12/30 18:00:25;;;;;;;1.80;1.08;;;;;;;6.49;95.50;150301.47;13072657;22;20467;-80
2023/12/30 18:05:27;;;;;;;3.40;1.83;;;;;;;6.37;95.79;150271.84;13069795;22;20022;-84
2023/12/30 18:10:28;;;;;;;4.50;3.03;;;;;;;6.21;96.59;150230.69;13070822;22;20011;-83
2023/12/30 18:15:31;;;;;;;4.53;2.60;;;;;;;6.07;96.96;150195.94;13070149;22;20066;-83
2023/12/30 18:20:32;;;;;;;4.05;3.17;;;;;;;6.07;96.70;150195.94;13070762;22;20457;-83
2023/12/30 18:25:34;;;;;;;10.25;9.25;;;;;;;6.34;95.96;150262.88;13072029;22;20045;-83
2023/12/30 18:30:37;;;;;;;21.48;14.45;;;;;;;5.97;97.21;150171.47;13070690;22;20073;-83
2023/12/30 18:35:38;;;;;;;12.35;9.27;;;;;;;5.55;99.82;150065.97;13075384;22;20019;-83
2023/12/30 18:40:42;;;;;;;7.72;6.40;;;;;;;5.38;100.00;150022.22;13069113;22;20016;-83
2023/12/30 18:45:44;;;;;;;7.20;5.40;;;;;;;5.32;100.00;150006.81;13094638;22;20011;-84
2023/12/30 18:50:46;;;;;;;7.82;4.72;;;;;;;5.48;100.00;150047.94;13068739;22;20022;-81
2023/12/30 18:55:48;;;;;;;8.02;5.60;;;;;;;5.19;100.00;149974.66;13098939;22;20019;-83
2023/12/30 19:00:50;;;;;;;8.25;6.55;;;;;;;4.98;100.00;149920.66;13071805;22;20014;-82
2023/12/30 19:05:53;;;;;;;11.95;6.82;;;;;;;4.78;100.00;149870.50;13094359;22;20019;-83
2023/12/30 19:10:56;;;;;;;10.40;7.50;;;;;;;4.67;100.00;149843.53;13102173;22;20015;-82
2023/12/30 19:15:57;;;;;;;21.35;19.05;;;;;;;4.90;100.00;149900.09;13073366;22;20015;-84
2023/12/30 19:20:59;;;;;;;10.32;7.68;;;;;;;4.87;100.00;149892.38;13058577;22;20019;-83
2023/12/30 19:26:02;;;;;;;8.18;7.38;;;;;;;4.86;100.00;149891.09;13075214;22;20023;-83
2023/12/30 19:31:04;;;;;;;8.95;7.80;;;;;;;4.92;100.00;149906.53;13045763;22;20019;-83
2023/12/30 19:36:07;;;;;;;10.60;7.55;;;;;;;4.72;100.00;149855.09;13045286;22;20106;-84
2023/12/30 19:41:09;;;;;;;10.02;7.15;;;;;;;4.88;100.00;149896.25;13075721;22;20015;-83
2023/12/30 19:46:11;;;;;;;9.38;6.55;;;;;;;4.74;100.00;149860.28;13083525;22;20019;-82
2023/12/30 19:51:13;;;;;;;11.20;7.35;;;;;;;4.83;100.00;149882.13;13087124;22;20011;-83
2023/12/30 19:56:14;;;;;;;7.80;7.00;;;;;;;4.77;100.00;149867.94;13084854;22;20019;-81
2023/12/30 20:01:18;;;;;;;9.55;7.00;;;;;;;4.81;100.00;149878.25;13078052;22;20011;-83
2023/12/30 20:06:20;;;;;;;13.25;7.90;;;;;;;4.81;100.00;149879.53;13050788;22;20031;-83
2023/12/30 20:11:22;;;;;;;8.20;6.10;;;;;;;4.80;100.00;149875.69;13083795;22;20019;-83
2023/12/30 20:16:27;;;;;;;6.38;5.10;;;;;;;4.76;100.00;149866.66;13088546;22;20023;-84
2023/12/30 20:21:28;;;;;;;9.82;6.90;;;;;;;4.76;100.00;149865.41;13084044;22;20075;-82
2023/12/30 20:26:30;;;;;;;7.63;6.45;;;;;;;4.86;100.00;149889.81;13074188;22;20445;-83
2023/12/30 20:31:32;;;;;;;15.07;7.22;;;;;;;4.85;100.00;149887.25;13076578;22;20020;-83
2023/12/30 20:36:34;;;;;;;7.38;6.13;;;;;;;4.75;100.00;149862.84;13081917;22;20019;-82
2023/12/30 20:41:40;;;;;;;7.65;6.05;;;;;;;4.83;100.00;149883.41;13028082;22;20049;-82
2023/12/30 20:46:43;;;;;;;13.13;4.90;;;;;;;4.89;100.00;149898.81;13045657;22;20019;-81
2023/12/30 20:51:48;;;;;;;6.95;5.40;;;;;;;4.61;100.00;149826.84;13073509;22;20023;-82
2023/12/30 20:56:50;;;;;;;8.05;5.55;;;;;;;4.52;100.00;149805.00;13102075;22;20180;-81
2023/12/30 21:01:51;;;;;;;5.90;5.05;;;;;;;4.45;100.00;149788.28;13074395;22;20019;-81
2023/12/30 21:06:53;;;;;;;6.28;5.20;;;;;;;4.43;100.00;149781.88;13072891;22;20064;-83
2023/12/30 21:11:55;;;;;;;7.05;5.47;;;;;;;4.52;100.00;149806.28;13073175;22;20030;-83
2023/12/30 21:17:00;;;;;;;5.88;4.32;;;;;;;4.42;100.00;149780.56;13045757;22;20065;-83
2023/12/30 21:22:02;;;;;;;3.92;2.10;;;;;;;4.35;100.00;149762.59;13077118;22;20019;-83
2023/12/30 21:27:05;;;;;;;4.88;2.00;;;;;;;4.64;100.00;149835.81;13048253;22;20094;-84
2023/12/30 21:32:07;;;;;;;6.20;2.42;;;;;;;4.92;100.00;149905.25;13074973;22;20022;-84
2023/12/30 21:37:09;;;;;;;3.25;2.00;;;;;;;4.76;100.00;149866.66;13048897;22;20019;-83
2023/12/30 21:42:11;;;;;;;3.70;1.83;;;;;;;4.69;100.00;149848.72;13091969;22;20019;-83
2023/12/30 21:47:13;;;;;;;3.10;1.77;;;;;;;4.68;100.00;149844.81;13049291;22;20345;-83
2023/12/30 21:52:16;;;;;;;3.30;1.63;;;;;;;4.75;100.00;149864.13;13076906;22;20023;-84
2023/12/30 21:57:18;;;;;;;4.18;1.98;;;;;;;4.98;100.00;149920.66;13073550;22;20041;-82
2023/12/30 22:02:19;;;;;;;2.50;1.25;;;;;;;5.13;100.00;149957.94;13071718;22;20035;-83
2023/12/30 22:07:22;;;;;;;2.90;1.30;;;;;;;5.15;100.00;149964.38;13073820;22;20023;-82
2023/12/30 22:12:29;;;;;;;3.45;1.20;;;;;;;5.24;100.00;149986.25;13045413;22;20026;-84
2023/12/30 22:17:31;;;;;;;2.90;1.30;;;;;;;5.15;100.00;149963.09;13072411;22;20022;-83
2023/12/30 22:22:33;;;;;;;2.80;1.20;;;;;;;5.04;100.00;149937.34;13043982;22;20060;-82
2023/12/30 22:27:35;;;;;;;2.35;1.17;;;;;;;4.88;100.00;149896.25;13045579;22;20019;-83
2023/12/30 22:32:37;;;;;;;2.83;1.08;;;;;;;5.02;100.00;149930.97;13081650;22;20046;-82
2023/12/30 22:37:40;;;;;;;1.40;1.00;;;;;;;4.97;100.00;149919.38;13072747;22;20032;-83
2023/12/30 22:42:41;;;;;;;1.10;0.80;;;;;;;5.11;100.00;149952.81;13072049;22;20120;-81
2023/12/30 22:47:43;;;;;;;1.83;0.85;;;;;;;4.92;100.00;149905.25;13074613;22;20015;-82
2023/12/30 22:52:45;;;;;;;1.27;0.70;;;;;;;4.79;100.00;149874.41;13074225;22;20068;-83
2023/12/30 22:57:47;;;;;;;4.35;1.30;;;;;;;4.69;100.00;149847.38;13075241;22;20022;-81
2023/12/30 23:02:49;;;;;;;2.95;1.52;;;;;;;4.49;100.00;149798.56;13077653;22;20022;-82
2023/12/30 23:07:51;;;;;;;2.63;1.73;;;;;;;4.55;100.00;149813.97;13070690;22;20341;-82
2023/12/30 23:12:53;;;;;;;2.55;1.95;;;;;;;4.44;100.00;149785.72;13068604;22;20019;-82
2023/12/30 23:17:55;;;;;;;3.15;2.38;;;;;;;4.23;100.00;149731.75;13041114;22;20026;-82